sensor_id;sensor_type;location;lat;lon;timestamp;P1;durP1;ratioP1;P2;durP2;ratioP2
70313;SDS011;57725;47.526;18.986;2023-01-05T00:01:12;6.85;;;5.95;;
70313;SDS011;57725;47.526;18.986;2023-01-05T00:03:38;10.35;;;6.10;;
70313;SDS011;57725;47.526;18.986;2023-01-05T00:06:11;10.18;;;6.80;;
70313;SDS011;57725;47.526;18.986;2023-01-05T00:11:04;8.40;;;6.25;;
70313;SDS011;57725;47.526;18.986;2023-01-05T00:13:59;8.05;;;5.55;;
70313;SDS011;57725;47.526;18.986;2023-01-05T00:19:27;8.10;;;5.75;;
70313;SDS011;57725;47.526;18.986;2023-01-05T00:25:11;7.90;;;5.47;;
70313;SDS011;57725;47.526;18.986;2023-01-05T00:27:39;11.65;;;7.05;;
70313;SDS011;57725;47.526;18.986;2023-01-05T00:30:06;7.38;;;5.95;;
70313;SDS011;57725;47.526;18.986;2023-01-05T00:32:40;8.50;;;5.40;;
70313;SDS011;57725;47.526;18.986;2023-01-05T00:35:06;8.48;;;6.20;;
70313;SDS011;57725;47.526;18.986;2023-01-05T00:37:33;7.97;;;5.90;;
70313;SDS011;57725;47.526;18.986;2023-01-05T00:40:00;8.18;;;6.15;;
70313;SDS011;57725;47.526;18.986;2023-01-05T00:42:28;8.88;;;6.45;;
70313;SDS011;57725;47.526;18.986;2023-01-05T00:44:53;6.80;;;5.25;;
70313;SDS011;57725;47.526;18.986;2023-01-05T00:47:18;7.32;;;5.88;;
70313;SDS011;57725;47.526;18.986;2023-01-05T00:49:46;8.23;;;5.55;;
70313;SDS011;57725;47.526;18.986;2023-01-05T00:52:11;8.60;;;6.40;;
70313;SDS011;57725;47.526;18.986;2023-01-05T00:54:37;7.85;;;5.50;;
70313;SDS011;57725;47.526;18.986;2023-01-05T00:57:02;7.10;;;5.32;;
70313;SDS011;57725;47.526;18.986;2023-01-05T00:59:29;7.82;;;5.72;;
70313;SDS011;57725;47.526;18.986;2023-01-05T01:01:55;7.85;;;5.72;;
70313;SDS011;57725;47.526;18.986;2023-01-05T01:04:21;7.68;;;5.18;;
70313;SDS011;57725;47.526;18.986;2023-01-05T01:06:47;8.65;;;5.95;;
70313;SDS011;57725;47.526;18.986;2023-01-05T01:09:13;8.85;;;5.97;;
70313;SDS011;57725;47.526;18.986;2023-01-05T01:11:39;8.63;;;6.13;;
70313;SDS011;57725;47.526;18.986;2023-01-05T01:14:05;8.63;;;5.05;;
70313;SDS011;57725;47.526;18.986;2023-01-05T01:16:31;7.00;;;5.05;;
70313;SDS011;57725;47.526;18.986;2023-01-05T01:18:58;8.27;;;6.47;;
70313;SDS011;57725;47.526;18.986;2023-01-05T01:21:23;7.63;;;5.53;;
70313;SDS011;57725;47.526;18.986;2023-01-05T01:23:49;9.55;;;6.10;;
70313;SDS011;57725;47.526;18.986;2023-01-05T01:26:14;7.57;;;5.32;;
70313;SDS011;57725;47.526;18.986;2023-01-05T01:28:40;8.45;;;5.60;;
70313;SDS011;57725;47.526;18.986;2023-01-05T01:31:05;7.63;;;5.65;;
70313;SDS011;57725;47.526;18.986;2023-01-05T01:33:31;7.55;;;5.90;;
70313;SDS011;57725;47.526;18.986;2023-01-05T01:35:57;8.15;;;5.78;;
70313;SDS011;57725;47.526;18.986;2023-01-05T01:38:23;7.82;;;5.70;;
70313;SDS011;57725;47.526;18.986;2023-01-05T01:40:49;8.23;;;5.50;;
70313;SDS011;57725;47.526;18.986;2023-01-05T01:43:19;7.93;;;5.55;;
70313;SDS011;57725;47.526;18.986;2023-01-05T01:46:04;7.90;;;5.35;;
70313;SDS011;57725;47.526;18.986;2023-01-05T01:48:29;8.38;;;5.75;;
70313;SDS011;57725;47.526;18.986;2023-01-05T01:50:56;7.43;;;5.22;;
70313;SDS011;57725;47.526;18.986;2023-01-05T01:53:23;6.78;;;4.78;;
70313;SDS011;57725;47.526;18.986;2023-01-05T01:55:53;6.90;;;5.75;;
70313;SDS011;57725;47.526;18.986;2023-01-05T01:58:22;8.50;;;5.95;;
70313;SDS011;57725;47.526;18.986;2023-01-05T02:00:51;6.10;;;4.60;;
70313;SDS011;57725;47.526;18.986;2023-01-05T02:03:16;6.85;;;5.05;;
70313;SDS011;57725;47.526;18.986;2023-01-05T02:05:42;7.28;;;5.50;;
70313;SDS011;57725;47.526;18.986;2023-01-05T02:08:11;7.45;;;5.25;;
70313;SDS011;57725;47.526;18.986;2023-01-05T02:36:30;6.82;;;4.68;;
70313;SDS011;57725;47.526;18.986;2023-01-05T02:39:05;7.47;;;4.88;;
70313;SDS011;57725;47.526;18.986;2023-01-05T02:44:14;6.53;;;4.85;;
70313;SDS011;57725;47.526;18.986;2023-01-05T02:46:41;6.88;;;4.93;;
70313;SDS011;57725;47.526;18.986;2023-01-05T02:49:06;7.43;;;5.40;;
70313;SDS011;57725;47.526;18.986;2023-01-05T02:51:37;6.82;;;5.03;;
70313;SDS011;57725;47.526;18.986;2023-01-05T02:54:11;5.90;;;4.35;;
70313;SDS011;57725;47.526;18.986;2023-01-05T02:56:53;6.80;;;5.00;;
70313;SDS011;57725;47.526;18.986;2023-01-05T02:59:32;6.60;;;4.97;;
70313;SDS011;57725;47.526;18.986;2023-01-05T03:02:06;7.20;;;5.00;;
70313;SDS011;57725;47.526;18.986;2023-01-05T03:04:38;5.90;;;4.40;;
70313;SDS011;57725;47.526;18.986;2023-01-05T03:07:15;7.10;;;5.35;;
70313;SDS011;57725;47.526;18.986;2023-01-05T03:09:43;6.20;;;4.90;;
70313;SDS011;57725;47.526;18.986;2023-01-05T03:12:31;7.32;;;4.90;;
70313;SDS011;57725;47.526;18.986;2023-01-05T03:15:27;6.28;;;4.55;;
70313;SDS011;57725;47.526;18.986;2023-01-05T03:18:06;6.45;;;4.65;;
70313;SDS011;57725;47.526;18.986;2023-01-05T03:20:33;6.55;;;5.07;;
70313;SDS011;57725;47.526;18.986;2023-01-05T03:23:02;5.88;;;4.63;;
70313;SDS011;57725;47.526;18.986;2023-01-05T03:25:48;6.65;;;4.93;;
70313;SDS011;57725;47.526;18.986;2023-01-05T03:28:46;5.53;;;4.65;;
70313;SDS011;57725;47.526;18.986;2023-01-05T03:31:35;5.97;;;4.70;;
70313;SDS011;57725;47.526;18.986;2023-01-05T03:35:07;5.72;;;4.72;;
70313;SDS011;57725;47.526;18.986;2023-01-05T03:37:37;6.15;;;4.53;;
70313;SDS011;57725;47.526;18.986;2023-01-05T03:40:12;5.95;;;4.75;;
70313;SDS011;57725;47.526;18.986;2023-01-05T03:42:44;6.65;;;5.05;;
70313;SDS011;57725;47.526;18.986;2023-01-05T03:45:11;6.35;;;4.18;;
70313;SDS011;57725;47.526;18.986;2023-01-05T03:47:38;6.03;;;4.57;;
70313;SDS011;57725;47.526;18.986;2023-01-05T03:50:03;5.90;;;4.32;;
70313;SDS011;57725;47.526;18.986;2023-01-05T03:52:29;5.22;;;4.20;;
70313;SDS011;57725;47.526;18.986;2023-01-05T03:54:57;6.25;;;4.60;;
70313;SDS011;57725;47.526;18.986;2023-01-05T03:57:22;6.63;;;5.05;;
70313;SDS011;57725;47.526;18.986;2023-01-05T03:59:48;5.22;;;4.55;;
70313;SDS011;57725;47.526;18.986;2023-01-05T04:02:13;6.72;;;4.55;;
70313;SDS011;57725;47.526;18.986;2023-01-05T04:04:45;5.80;;;4.28;;
70313;SDS011;57725;47.526;18.986;2023-01-05T04:07:10;5.85;;;4.47;;
70313;SDS011;57725;47.526;18.986;2023-01-05T04:09:36;6.65;;;4.78;;
70313;SDS011;57725;47.526;18.986;2023-01-05T04:12:01;6.82;;;4.35;;
70313;SDS011;57725;47.526;18.986;2023-01-05T04:14:27;5.90;;;4.22;;
70313;SDS011;57725;47.526;18.986;2023-01-05T04:16:55;6.15;;;4.45;;
70313;SDS011;57725;47.526;18.986;2023-01-05T04:19:20;4.80;;;3.95;;
70313;SDS011;57725;47.526;18.986;2023-01-05T04:21:46;6.20;;;4.40;;
70313;SDS011;57725;47.526;18.986;2023-01-05T04:24:14;5.30;;;4.20;;
70313;SDS011;57725;47.526;18.986;2023-01-05T04:26:39;5.75;;;4.38;;
70313;SDS011;57725;47.526;18.986;2023-01-05T04:29:06;6.45;;;4.53;;
70313;SDS011;57725;47.526;18.986;2023-01-05T04:31:40;5.55;;;4.30;;
70313;SDS011;57725;47.526;18.986;2023-01-05T04:34:12;5.25;;;3.90;;
70313;SDS011;57725;47.526;18.986;2023-01-05T04:36:38;5.13;;;4.10;;
70313;SDS011;57725;47.526;18.986;2023-01-05T04:39:03;5.38;;;3.95;;
70313;SDS011;57725;47.526;18.986;2023-01-05T04:41:28;5.90;;;4.30;;
70313;SDS011;57725;47.526;18.986;2023-01-05T04:43:54;5.47;;;4.15;;
70313;SDS011;57725;47.526;18.986;2023-01-05T04:46:19;5.65;;;4.05;;
70313;SDS011;57725;47.526;18.986;2023-01-05T04:48:45;5.57;;;4.10;;
70313;SDS011;57725;47.526;18.986;2023-01-05T04:51:10;5.50;;;4.00;;
70313;SDS011;57725;47.526;18.986;2023-01-05T04:53:35;5.50;;;4.30;;
70313;SDS011;57725;47.526;18.986;2023-01-05T04:56:01;5.68;;;4.68;;
70313;SDS011;57725;47.526;18.986;2023-01-05T04:58:26;6.53;;;4.63;;
70313;SDS011;57725;47.526;18.986;2023-01-05T05:00:52;6.35;;;3.92;;
70313;SDS011;57725;47.526;18.986;2023-01-05T05:03:17;6.10;;;4.18;;
70313;SDS011;57725;47.526;18.986;2023-01-05T05:05:42;5.32;;;4.18;;
70313;SDS011;57725;47.526;18.986;2023-01-05T05:08:08;5.18;;;3.97;;
70313;SDS011;57725;47.526;18.986;2023-01-05T05:10:34;5.72;;;3.92;;
70313;SDS011;57725;47.526;18.986;2023-01-05T05:12:59;6.10;;;4.07;;
70313;SDS011;57725;47.526;18.986;2023-01-05T05:15:24;4.90;;;3.97;;
70313;SDS011;57725;47.526;18.986;2023-01-05T05:17:50;5.40;;;3.95;;
70313;SDS011;57725;47.526;18.986;2023-01-05T05:20:15;5.43;;;3.97;;
70313;SDS011;57725;47.526;18.986;2023-01-05T05:22:41;5.88;;;4.15;;
70313;SDS011;57725;47.526;18.986;2023-01-05T05:25:06;6.82;;;4.25;;
70313;SDS011;57725;47.526;18.986;2023-01-05T05:27:32;5.65;;;3.95;;
70313;SDS011;57725;47.526;18.986;2023-01-05T05:29:57;5.68;;;4.35;;
70313;SDS011;57725;47.526;18.986;2023-01-05T05:32:23;5.22;;;3.88;;
70313;SDS011;57725;47.526;18.986;2023-01-05T05:34:48;6.18;;;4.03;;
70313;SDS011;57725;47.526;18.986;2023-01-05T05:37:14;4.78;;;3.80;;
70313;SDS011;57725;47.526;18.986;2023-01-05T05:39:39;5.68;;;4.20;;
70313;SDS011;57725;47.526;18.986;2023-01-05T05:42:04;5.07;;;3.92;;
70313;SDS011;57725;47.526;18.986;2023-01-05T05:44:30;5.28;;;3.95;;
70313;SDS011;57725;47.526;18.986;2023-01-05T05:46:55;5.90;;;3.78;;
70313;SDS011;57725;47.526;18.986;2023-01-05T05:49:21;5.03;;;3.83;;
70313;SDS011;57725;47.526;18.986;2023-01-05T05:51:46;6.85;;;4.28;;
70313;SDS011;57725;47.526;18.986;2023-01-05T05:54:11;5.38;;;4.00;;
70313;SDS011;57725;47.526;18.986;2023-01-05T05:56:37;5.50;;;4.43;;
70313;SDS011;57725;47.526;18.986;2023-01-05T05:59:02;6.65;;;4.03;;
70313;SDS011;57725;47.526;18.986;2023-01-05T06:01:30;5.55;;;3.97;;
70313;SDS011;57725;47.526;18.986;2023-01-05T06:03:56;6.63;;;4.70;;
70313;SDS011;57725;47.526;18.986;2023-01-05T06:06:21;5.35;;;3.80;;
70313;SDS011;57725;47.526;18.986;2023-01-05T06:08:47;5.68;;;4.30;;
70313;SDS011;57725;47.526;18.986;2023-01-05T06:11:12;6.25;;;4.13;;
70313;SDS011;57725;47.526;18.986;2023-01-05T06:13:37;5.25;;;4.00;;
70313;SDS011;57725;47.526;18.986;2023-01-05T06:16:03;5.57;;;4.03;;
70313;SDS011;57725;47.526;18.986;2023-01-05T06:18:29;5.80;;;4.15;;
70313;SDS011;57725;47.526;18.986;2023-01-05T06:20:54;5.10;;;3.75;;
70313;SDS011;57725;47.526;18.986;2023-01-05T06:23:20;5.82;;;4.20;;
70313;SDS011;57725;47.526;18.986;2023-01-05T06:25:45;5.40;;;3.92;;
70313;SDS011;57725;47.526;18.986;2023-01-05T06:28:11;5.70;;;4.20;;
70313;SDS011;57725;47.526;18.986;2023-01-05T06:30:36;5.53;;;4.07;;
70313;SDS011;57725;47.526;18.986;2023-01-05T06:33:01;5.43;;;3.85;;
70313;SDS011;57725;47.526;18.986;2023-01-05T06:35:33;5.50;;;4.03;;
70313;SDS011;57725;47.526;18.986;2023-01-05T06:37:59;5.15;;;4.00;;
70313;SDS011;57725;47.526;18.986;2023-01-05T06:40:24;5.25;;;3.40;;
70313;SDS011;57725;47.526;18.986;2023-01-05T06:42:50;7.10;;;4.43;;
70313;SDS011;57725;47.526;18.986;2023-01-05T06:45:15;5.28;;;4.30;;
70313;SDS011;57725;47.526;18.986;2023-01-05T06:47:41;5.45;;;4.10;;
70313;SDS011;57725;47.526;18.986;2023-01-05T06:50:07;5.78;;;3.97;;
70313;SDS011;57725;47.526;18.986;2023-01-05T06:52:33;4.40;;;3.75;;
70313;SDS011;57725;47.526;18.986;2023-01-05T06:55:03;4.88;;;3.83;;
70313;SDS011;57725;47.526;18.986;2023-01-05T06:57:30;4.75;;;3.70;;
70313;SDS011;57725;47.526;18.986;2023-01-05T06:59:55;4.65;;;3.72;;
70313;SDS011;57725;47.526;18.986;2023-01-05T07:02:21;5.03;;;3.78;;
70313;SDS011;57725;47.526;18.986;2023-01-05T07:04:46;4.88;;;3.97;;
70313;SDS011;57725;47.526;18.986;2023-01-05T07:07:12;4.53;;;3.85;;
70313;SDS011;57725;47.526;18.986;2023-01-05T07:09:38;5.68;;;4.18;;
70313;SDS011;57725;47.526;18.986;2023-01-05T07:12:05;5.93;;;4.50;;
70313;SDS011;57725;47.526;18.986;2023-01-05T07:14:30;6.57;;;3.88;;
70313;SDS011;57725;47.526;18.986;2023-01-05T07:16:56;5.70;;;3.80;;
70313;SDS011;57725;47.526;18.986;2023-01-05T07:19:22;4.90;;;3.67;;
70313;SDS011;57725;47.526;18.986;2023-01-05T07:21:47;5.03;;;3.80;;
70313;SDS011;57725;47.526;18.986;2023-01-05T07:24:13;4.50;;;3.65;;
70313;SDS011;57725;47.526;18.986;2023-01-05T07:26:38;5.65;;;3.60;;
70313;SDS011;57725;47.526;18.986;2023-01-05T07:29:04;5.88;;;4.22;;
70313;SDS011;57725;47.526;18.986;2023-01-05T07:31:29;4.70;;;3.63;;
70313;SDS011;57725;47.526;18.986;2023-01-05T07:33:54;4.93;;;3.70;;
70313;SDS011;57725;47.526;18.986;2023-01-05T07:36:20;5.00;;;3.58;;
70313;SDS011;57725;47.526;18.986;2023-01-05T07:38:45;4.95;;;3.97;;
70313;SDS011;57725;47.526;18.986;2023-01-05T07:41:10;5.20;;;3.45;;
70313;SDS011;57725;47.526;18.986;2023-01-05T07:43:36;4.78;;;3.83;;
70313;SDS011;57725;47.526;18.986;2023-01-05T07:46:02;4.20;;;3.50;;
70313;SDS011;57725;47.526;18.986;2023-01-05T07:48:28;5.22;;;3.55;;
70313;SDS011;57725;47.526;18.986;2023-01-05T07:51:00;5.00;;;3.33;;
70313;SDS011;57725;47.526;18.986;2023-01-05T07:53:31;4.15;;;3.22;;
70313;SDS011;57725;47.526;18.986;2023-01-05T07:55:59;4.75;;;3.35;;
70313;SDS011;57725;47.526;18.986;2023-01-05T07:58:26;4.13;;;3.55;;
70313;SDS011;57725;47.526;18.986;2023-01-05T08:00:52;4.28;;;3.53;;
70313;SDS011;57725;47.526;18.986;2023-01-05T08:03:18;4.03;;;2.67;;
70313;SDS011;57725;47.526;18.986;2023-01-05T08:05:44;4.90;;;2.83;;
70313;SDS011;57725;47.526;18.986;2023-01-05T08:08:09;4.03;;;3.00;;
70313;SDS011;57725;47.526;18.986;2023-01-05T08:10:37;4.32;;;3.72;;
70313;SDS011;57725;47.526;18.986;2023-01-05T08:13:03;5.88;;;3.60;;
70313;SDS011;57725;47.526;18.986;2023-01-05T08:15:49;5.10;;;3.45;;
70313;SDS011;57725;47.526;18.986;2023-01-05T08:18:16;5.65;;;3.50;;
70313;SDS011;57725;47.526;18.986;2023-01-05T08:20:41;4.45;;;3.28;;
70313;SDS011;57725;47.526;18.986;2023-01-05T08:23:06;3.90;;;2.90;;
70313;SDS011;57725;47.526;18.986;2023-01-05T08:25:32;3.63;;;2.78;;
70313;SDS011;57725;47.526;18.986;2023-01-05T08:27:58;4.07;;;2.80;;
70313;SDS011;57725;47.526;18.986;2023-01-05T08:30:23;4.43;;;3.13;;
70313;SDS011;57725;47.526;18.986;2023-01-05T08:32:49;4.13;;;2.90;;
70313;SDS011;57725;47.526;18.986;2023-01-05T08:35:16;4.05;;;3.20;;
70313;SDS011;57725;47.526;18.986;2023-01-05T08:37:45;4.93;;;3.38;;
70313;SDS011;57725;47.526;18.986;2023-01-05T08:40:10;5.10;;;3.60;;
70313;SDS011;57725;47.526;18.986;2023-01-05T08:42:36;3.65;;;2.88;;
70313;SDS011;57725;47.526;18.986;2023-01-05T08:45:02;4.00;;;3.45;;
70313;SDS011;57725;47.526;18.986;2023-01-05T08:47:28;3.92;;;3.17;;
70313;SDS011;57725;47.526;18.986;2023-01-05T08:49:54;3.97;;;3.10;;
70313;SDS011;57725;47.526;18.986;2023-01-05T08:52:19;4.50;;;3.28;;
70313;SDS011;57725;47.526;18.986;2023-01-05T08:54:47;3.78;;;3.13;;
70313;SDS011;57725;47.526;18.986;2023-01-05T08:57:12;5.32;;;3.28;;
70313;SDS011;57725;47.526;18.986;2023-01-05T08:59:38;3.55;;;2.88;;
70313;SDS011;57725;47.526;18.986;2023-01-05T09:02:04;4.95;;;3.08;;
70313;SDS011;57725;47.526;18.986;2023-01-05T09:04:30;4.57;;;3.67;;
70313;SDS011;57725;47.526;18.986;2023-01-05T09:06:56;4.30;;;3.08;;
70313;SDS011;57725;47.526;18.986;2023-01-05T09:09:21;5.40;;;3.40;;
70313;SDS011;57725;47.526;18.986;2023-01-05T09:11:48;4.35;;;3.20;;
70313;SDS011;57725;47.526;18.986;2023-01-05T09:14:14;3.53;;;3.15;;
70313;SDS011;57725;47.526;18.986;2023-01-05T09:16:39;3.58;;;3.03;;
70313;SDS011;57725;47.526;18.986;2023-01-05T09:19:11;4.68;;;3.28;;
70313;SDS011;57725;47.526;18.986;2023-01-05T09:21:37;3.53;;;3.00;;
70313;SDS011;57725;47.526;18.986;2023-01-05T09:24:06;4.57;;;3.05;;
70313;SDS011;57725;47.526;18.986;2023-01-05T09:26:32;4.22;;;3.20;;
70313;SDS011;57725;47.526;18.986;2023-01-05T09:28:58;5.10;;;3.45;;
70313;SDS011;57725;47.526;18.986;2023-01-05T09:31:24;3.60;;;2.80;;
70313;SDS011;57725;47.526;18.986;2023-01-05T09:33:49;4.30;;;2.80;;
70313;SDS011;57725;47.526;18.986;2023-01-05T09:36:16;3.40;;;2.78;;
70313;SDS011;57725;47.526;18.986;2023-01-05T09:38:46;3.72;;;2.70;;
70313;SDS011;57725;47.526;18.986;2023-01-05T09:41:20;4.30;;;2.50;;
70313;SDS011;57725;47.526;18.986;2023-01-05T09:43:49;4.05;;;3.10;;
70313;SDS011;57725;47.526;18.986;2023-01-05T09:46:21;3.55;;;2.80;;
70313;SDS011;57725;47.526;18.986;2023-01-05T09:48:54;4.50;;;3.13;;
70313;SDS011;57725;47.526;18.986;2023-01-05T09:51:26;4.25;;;3.28;;
70313;SDS011;57725;47.526;18.986;2023-01-05T09:53:52;4.85;;;3.25;;
70313;SDS011;57725;47.526;18.986;2023-01-05T09:59:14;3.70;;;2.65;;
70313;SDS011;57725;47.526;18.986;2023-01-05T10:01:48;3.85;;;3.08;;
70313;SDS011;57725;47.526;18.986;2023-01-05T10:04:22;4.60;;;2.88;;
70313;SDS011;57725;47.526;18.986;2023-01-05T10:06:54;4.03;;;2.90;;
70313;SDS011;57725;47.526;18.986;2023-01-05T10:09:43;4.15;;;2.63;;
70313;SDS011;57725;47.526;18.986;2023-01-05T10:12:17;4.70;;;3.25;;
70313;SDS011;57725;47.526;18.986;2023-01-05T10:15:18;4.07;;;2.93;;
70313;SDS011;57725;47.526;18.986;2023-01-05T10:17:45;4.20;;;3.10;;
70313;SDS011;57725;47.526;18.986;2023-01-05T10:23:11;3.88;;;3.13;;
70313;SDS011;57725;47.526;18.986;2023-01-05T10:33:57;3.47;;;2.55;;
70313;SDS011;57725;47.526;18.986;2023-01-05T10:39:58;4.07;;;2.70;;
70313;SDS011;57725;47.526;18.986;2023-01-05T10:42:46;4.25;;;2.75;;
70313;SDS011;57725;47.526;18.986;2023-01-05T10:45:27;4.28;;;2.83;;
70313;SDS011;57725;47.526;18.986;2023-01-05T10:47:54;4.57;;;2.35;;
70313;SDS011;57725;47.526;18.986;2023-01-05T10:52:52;4.55;;;3.03;;
70313;SDS011;57725;47.526;18.986;2023-01-05T10:55:18;4.22;;;3.08;;
70313;SDS011;57725;47.526;18.986;2023-01-05T10:57:45;3.13;;;2.60;;
70313;SDS011;57725;47.526;18.986;2023-01-05T11:00:15;4.03;;;2.53;;
70313;SDS011;57725;47.526;18.986;2023-01-05T11:02:46;3.35;;;2.45;;
70313;SDS011;57725;47.526;18.986;2023-01-05T11:05:37;5.13;;;2.75;;
70313;SDS011;57725;47.526;18.986;2023-01-05T11:10:58;3.45;;;2.50;;
70313;SDS011;57725;47.526;18.986;2023-01-05T11:13:30;3.03;;;2.30;;
70313;SDS011;57725;47.526;18.986;2023-01-05T11:15:59;3.75;;;2.30;;
70313;SDS011;57725;47.526;18.986;2023-01-05T11:18:30;3.50;;;2.63;;
70313;SDS011;57725;47.526;18.986;2023-01-05T11:21:19;3.08;;;2.50;;
70313;SDS011;57725;47.526;18.986;2023-01-05T11:23:47;3.40;;;2.55;;
70313;SDS011;57725;47.526;18.986;2023-01-05T11:26:22;4.13;;;2.67;;
70313;SDS011;57725;47.526;18.986;2023-01-05T11:31:25;3.83;;;2.50;;
70313;SDS011;57725;47.526;18.986;2023-01-05T11:33:56;4.45;;;2.30;;
70313;SDS011;57725;47.526;18.986;2023-01-05T11:36:23;3.17;;;2.40;;
70313;SDS011;57725;47.526;18.986;2023-01-05T11:38:50;3.45;;;2.47;;
70313;SDS011;57725;47.526;18.986;2023-01-05T11:41:20;3.20;;;2.33;;
70313;SDS011;57725;47.526;18.986;2023-01-05T11:43:46;3.58;;;2.50;;
70313;SDS011;57725;47.526;18.986;2023-01-05T11:46:12;3.10;;;1.95;;
70313;SDS011;57725;47.526;18.986;2023-01-05T11:48:39;2.70;;;2.20;;
70313;SDS011;57725;47.526;18.986;2023-01-05T11:54:25;2.75;;;1.85;;
70313;SDS011;57725;47.526;18.986;2023-01-05T11:57:13;4.50;;;2.10;;
70313;SDS011;57725;47.526;18.986;2023-01-05T11:59:38;2.90;;;2.03;;
70313;SDS011;57725;47.526;18.986;2023-01-05T12:07:51;3.92;;;1.92;;
70313;SDS011;57725;47.526;18.986;2023-01-05T12:21:50;2.55;;;1.83;;
70313;SDS011;57725;47.526;18.986;2023-01-05T12:40:35;3.08;;;1.98;;
70313;SDS011;57725;47.526;18.986;2023-01-05T12:48:53;3.83;;;1.73;;
70313;SDS011;57725;47.526;18.986;2023-01-05T12:54:42;3.10;;;2.08;;
70313;SDS011;57725;47.526;18.986;2023-01-05T12:57:17;2.33;;;1.58;;
70313;SDS011;57725;47.526;18.986;2023-01-05T12:59:53;2.92;;;1.75;;
70313;SDS011;57725;47.526;18.986;2023-01-05T13:02:30;2.30;;;1.60;;
70313;SDS011;57725;47.526;18.986;2023-01-05T13:07:49;2.70;;;1.85;;
70313;SDS011;57725;47.526;18.986;2023-01-05T13:10:22;2.45;;;1.67;;
70313;SDS011;57725;47.526;18.986;2023-01-05T13:12:55;1.98;;;1.50;;
70313;SDS011;57725;47.526;18.986;2023-01-05T13:15:30;3.67;;;1.92;;
70313;SDS011;57725;47.526;18.986;2023-01-05T13:17:59;1.77;;;1.45;;
70313;SDS011;57725;47.526;18.986;2023-01-05T13:20:42;2.17;;;1.50;;
70313;SDS011;57725;47.526;18.986;2023-01-05T13:23:15;2.00;;;1.38;;
70313;SDS011;57725;47.526;18.986;2023-01-05T13:25:45;2.17;;;1.45;;
70313;SDS011;57725;47.526;18.986;2023-01-05T13:28:16;2.28;;;1.58;;
70313;SDS011;57725;47.526;18.986;2023-01-05T13:30:46;2.10;;;1.27;;
70313;SDS011;57725;47.526;18.986;2023-01-05T13:33:36;3.42;;;1.30;;
70313;SDS011;57725;47.526;18.986;2023-01-05T13:39:16;1.90;;;1.60;;
70313;SDS011;57725;47.526;18.986;2023-01-05T13:45:06;2.72;;;1.75;;
70313;SDS011;57725;47.526;18.986;2023-01-05T13:53:41;6.82;;;2.08;;
70313;SDS011;57725;47.526;18.986;2023-01-05T13:56:31;5.57;;;1.90;;
70313;SDS011;57725;47.526;18.986;2023-01-05T13:59:04;4.03;;;1.75;;
70313;SDS011;57725;47.526;18.986;2023-01-05T14:01:42;4.88;;;2.13;;
70313;SDS011;57725;47.526;18.986;2023-01-05T14:04:18;5.28;;;1.73;;
70313;SDS011;57725;47.526;18.986;2023-01-05T14:06:54;5.53;;;2.20;;
70313;SDS011;57725;47.526;18.986;2023-01-05T14:09:27;5.47;;;1.92;;
70313;SDS011;57725;47.526;18.986;2023-01-05T14:22:54;3.72;;;1.83;;
70313;SDS011;57725;47.526;18.986;2023-01-05T14:33:47;5.60;;;2.10;;
70313;SDS011;57725;47.526;18.986;2023-01-05T14:39:06;3.95;;;1.45;;
70313;SDS011;57725;47.526;18.986;2023-01-05T14:41:53;5.57;;;1.63;;
70313;SDS011;57725;47.526;18.986;2023-01-05T14:44:20;3.28;;;1.50;;
70313;SDS011;57725;47.526;18.986;2023-01-05T14:46:52;2.95;;;1.40;;
70313;SDS011;57725;47.526;18.986;2023-01-05T14:55:20;1.83;;;1.40;;
70313;SDS011;57725;47.526;18.986;2023-01-05T15:00:44;2.53;;;1.42;;
70313;SDS011;57725;47.526;18.986;2023-01-05T15:03:18;3.95;;;1.92;;
70313;SDS011;57725;47.526;18.986;2023-01-05T15:05:58;3.20;;;1.63;;
70313;SDS011;57725;47.526;18.986;2023-01-05T15:11:17;2.38;;;1.20;;
70313;SDS011;57725;47.526;18.986;2023-01-05T15:16:52;1.60;;;0.95;;
70313;SDS011;57725;47.526;18.986;2023-01-05T15:25:02;3.97;;;1.40;;
70313;SDS011;57725;47.526;18.986;2023-01-05T15:28:15;3.08;;;1.33;;
70313;SDS011;57725;47.526;18.986;2023-01-05T15:33:08;2.25;;;1.27;;
70313;SDS011;57725;47.526;18.986;2023-01-05T15:35:51;6.70;;;1.77;;
70313;SDS011;57725;47.526;18.986;2023-01-05T15:38:25;3.78;;;1.30;;
70313;SDS011;57725;47.526;18.986;2023-01-05T15:41:05;4.13;;;1.55;;
70313;SDS011;57725;47.526;18.986;2023-01-05T15:43:33;2.10;;;1.30;;
70313;SDS011;57725;47.526;18.986;2023-01-05T15:46:03;3.47;;;1.67;;
70313;SDS011;57725;47.526;18.986;2023-01-05T15:48:33;5.20;;;1.65;;
70313;SDS011;57725;47.526;18.986;2023-01-05T15:51:04;2.88;;;1.48;;
70313;SDS011;57725;47.526;18.986;2023-01-05T15:53:37;2.00;;;1.30;;
70313;SDS011;57725;47.526;18.986;2023-01-05T15:56:05;3.00;;;1.20;;
70313;SDS011;57725;47.526;18.986;2023-01-05T15:58:47;2.92;;;1.50;;
70313;SDS011;57725;47.526;18.986;2023-01-05T16:01:13;1.95;;;1.20;;
70313;SDS011;57725;47.526;18.986;2023-01-05T16:03:41;3.28;;;1.42;;
70313;SDS011;57725;47.526;18.986;2023-01-05T16:06:19;3.08;;;1.40;;
70313;SDS011;57725;47.526;18.986;2023-01-05T16:08:48;2.75;;;1.25;;
70313;SDS011;57725;47.526;18.986;2023-01-05T16:11:30;2.33;;;1.30;;
70313;SDS011;57725;47.526;18.986;2023-01-05T16:14:00;2.00;;;1.20;;
70313;SDS011;57725;47.526;18.986;2023-01-05T16:17:31;2.65;;;1.05;;
70313;SDS011;57725;47.526;18.986;2023-01-05T16:19:43;4.80;;;1.40;;
70313;SDS011;57725;47.526;18.986;2023-01-05T16:25:14;2.80;;;0.90;;
70313;SDS011;57725;47.526;18.986;2023-01-05T16:27:48;1.90;;;1.00;;
70313;SDS011;57725;47.526;18.986;2023-01-05T16:30:34;1.58;;;1.00;;
70313;SDS011;57725;47.526;18.986;2023-01-05T16:35:47;3.28;;;0.93;;
70313;SDS011;57725;47.526;18.986;2023-01-05T16:38:29;3.72;;;1.35;;
70313;SDS011;57725;47.526;18.986;2023-01-05T16:43:54;1.35;;;1.02;;
70313;SDS011;57725;47.526;18.986;2023-01-05T16:46:29;3.20;;;1.40;;
70313;SDS011;57725;47.526;18.986;2023-01-05T16:53:57;2.08;;;1.27;;
70313;SDS011;57725;47.526;18.986;2023-01-05T16:59:02;2.00;;;0.88;;
70313;SDS011;57725;47.526;18.986;2023-01-05T17:01:48;1.52;;;0.95;;
70313;SDS011;57725;47.526;18.986;2023-01-05T17:04:14;1.90;;;0.93;;
70313;SDS011;57725;47.526;18.986;2023-01-05T17:06:43;1.63;;;0.93;;
70313;SDS011;57725;47.526;18.986;2023-01-05T17:09:28;2.22;;;0.98;;
70313;SDS011;57725;47.526;18.986;2023-01-05T17:11:56;1.08;;;0.70;;
70313;SDS011;57725;47.526;18.986;2023-01-05T17:14:22;1.88;;;1.08;;
70313;SDS011;57725;47.526;18.986;2023-01-05T17:16:48;1.90;;;1.05;;
70313;SDS011;57725;47.526;18.986;2023-01-05T17:19:17;2.60;;;0.98;;
70313;SDS011;57725;47.526;18.986;2023-01-05T17:21:48;2.15;;;1.10;;
70313;SDS011;57725;47.526;18.986;2023-01-05T17:24:17;1.33;;;0.80;;
70313;SDS011;57725;47.526;18.986;2023-01-05T17:26:43;2.42;;;0.80;;
70313;SDS011;57725;47.526;18.986;2023-01-05T17:29:09;1.98;;;0.95;;
70313;SDS011;57725;47.526;18.986;2023-01-05T17:31:49;2.13;;;1.00;;
70313;SDS011;57725;47.526;18.986;2023-01-05T17:34:14;2.53;;;0.98;;
70313;SDS011;57725;47.526;18.986;2023-01-05T17:36:40;1.77;;;0.95;;
70313;SDS011;57725;47.526;18.986;2023-01-05T17:39:06;2.13;;;1.02;;
70313;SDS011;57725;47.526;18.986;2023-01-05T17:41:32;1.77;;;0.82;;
70313;SDS011;57725;47.526;18.986;2023-01-05T17:43:57;2.08;;;0.98;;
70313;SDS011;57725;47.526;18.986;2023-01-05T17:46:26;1.40;;;0.90;;
70313;SDS011;57725;47.526;18.986;2023-01-05T17:48:57;1.57;;;0.90;;
70313;SDS011;57725;47.526;18.986;2023-01-05T17:51:24;2.00;;;0.70;;
70313;SDS011;57725;47.526;18.986;2023-01-05T17:53:52;1.73;;;0.90;;